createdAt,value
2022-10-19T00:00:25.381Z,11.98
2022-10-19T00:01:27.530Z,10.85
2022-10-19T00:02:29.750Z,10.25
2022-10-19T00:03:32.376Z,9.52
2022-10-19T00:04:34.870Z,9.30
2022-10-19T00:05:37.047Z,8.02
2022-10-19T00:06:39.316Z,8.05
2022-10-19T00:07:41.452Z,8.45
2022-10-19T00:08:44.222Z,8.48
2022-10-19T00:09:46.496Z,8.90
2022-10-19T00:10:48.682Z,8.27
2022-10-19T00:11:51.185Z,8.10
2022-10-19T00:12:53.345Z,8.02
2022-10-19T00:13:56.996Z,8.45
2022-10-19T00:14:59.328Z,8.30
2022-10-19T00:16:02.061Z,7.82
2022-10-19T00:17:04.236Z,7.93
2022-10-19T00:18:07.900Z,8.82
2022-10-19T00:19:14.791Z,8.70
2022-10-19T00:20:17.027Z,9.27
2022-10-19T00:21:19.777Z,8.48
2022-10-19T00:22:22.476Z,9.23
2022-10-19T00:23:24.641Z,9.65
2022-10-19T00:24:26.809Z,8.77
2022-10-19T00:25:28.968Z,9.43
2022-10-19T00:26:32.034Z,9.20
2022-10-19T00:27:35.642Z,10.35
2022-10-19T00:28:38.001Z,11.77
2022-10-19T00:29:40.399Z,10.85
2022-10-19T00:30:42.589Z,11.27
2022-10-19T00:31:44.896Z,13.75
2022-10-19T00:32:47.116Z,11.35
2022-10-19T00:33:49.438Z,11.35
2022-10-19T00:34:51.580Z,11.57
2022-10-19T00:35:53.740Z,11.40
2022-10-19T00:36:55.887Z,10.88
2022-10-19T00:37:58.043Z,9.95
2022-10-19T00:39:01.174Z,10.73
2022-10-19T00:40:03.603Z,10.93
2022-10-19T00:41:05.830Z,10.18
2022-10-19T00:42:12.141Z,10.55
2022-10-19T00:43:20.223Z,11.02
2022-10-19T00:44:42.531Z,10.57
2022-10-19T00:45:44.838Z,10.90
2022-10-19T00:46:51.634Z,9.05
2022-10-19T00:47:54.337Z,10.00
2022-10-19T00:49:10.051Z,9.60
2022-10-19T00:50:14.547Z,11.82
2022-10-19T00:51:17.238Z,10.40
2022-10-19T00:52:22.064Z,10.27
2022-10-19T00:53:26.657Z,11.13
2022-10-19T00:54:31.276Z,9.50
2022-10-19T00:55:34.528Z,12.20
2022-10-19T00:56:40.612Z,10.07
2022-10-19T00:57:42.846Z,10.77
2022-10-19T00:58:45.773Z,11.88
2022-10-19T00:59:48.167Z,9.75
2022-10-19T01:00:50.505Z,12.35
2022-10-19T01:01:53.766Z,12.73
2022-10-19T01:02:56.465Z,13.15
2022-10-19T01:03:59.053Z,11.25
2022-10-19T01:05:01.801Z,10.75
2022-10-19T01:06:04.231Z,9.77
2022-10-19T01:07:08.184Z,9.18
2022-10-19T01:08:11.686Z,10.45
2022-10-19T01:09:13.914Z,10.98
2022-10-19T01:10:16.399Z,10.05
2022-10-19T01:11:40.284Z,13.15
2022-10-19T01:13:02.685Z,11.85
2022-10-19T01:14:38.729Z,11.23
2022-10-19T01:15:57.555Z,9.57
2022-10-19T01:17:24.301Z,11.15
2022-10-19T01:18:53.526Z,9.27
2022-10-19T01:20:07.524Z,14.38
2022-10-19T01:21:09.710Z,12.52
2022-10-19T01:22:24.335Z,13.45
2022-10-19T01:23:53.199Z,14.65
2022-10-19T01:25:22.913Z,12.45
2022-10-19T01:27:12.404Z,11.75
2022-10-19T01:28:37.498Z,11.50
2022-10-19T01:30:06.876Z,9.75
2022-10-19T01:31:29.250Z,9.65
2022-10-19T01:32:46.312Z,9.68
2022-10-19T01:34:14.927Z,14.15
2022-10-19T01:35:28.630Z,24.30
2022-10-19T01:36:47.120Z,22.88
2022-10-19T01:37:55.022Z,24.65
2022-10-19T01:39:05.514Z,23.15
2022-10-19T01:40:30.431Z,20.67
2022-10-19T01:41:38.455Z,17.13
2022-10-19T01:43:03.005Z,18.60
2022-10-19T01:44:33.099Z,22.05
2022-10-19T01:45:44.979Z,23.33
2022-10-19T01:46:55.295Z,19.52
2022-10-19T01:48:06.952Z,18.15
2022-10-19T01:49:38.159Z,20.48
2022-10-19T01:50:55.633Z,18.02
2022-10-19T01:52:01.795Z,19.75
2022-10-19T01:53:07.938Z,20.88
2022-10-19T01:54:14.017Z,34.00
2022-10-19T01:55:18.867Z,30.38
2022-10-19T01:56:25.270Z,31.48
2022-10-19T01:57:36.375Z,27.63
2022-10-19T01:58:43.077Z,30.52
2022-10-19T01:59:47.210Z,27.88
2022-10-19T02:00:52.893Z,31.50
2022-10-19T02:01:55.948Z,29.48
2022-10-19T02:03:00.490Z,29.45
2022-10-19T02:04:03.821Z,28.85
2022-10-19T02:05:07.723Z,21.42
2022-10-19T02:06:11.466Z,26.75
2022-10-19T02:07:14.034Z,25.92
2022-10-19T02:08:24.475Z,27.55
2022-10-19T02:09:26.697Z,29.38
2022-10-19T02:10:31.054Z,21.83
2022-10-19T02:11:35.697Z,22.45
2022-10-19T02:12:38.149Z,20.92
2022-10-19T02:13:42.624Z,20.33
2022-10-19T02:14:47.514Z,22.42
2022-10-19T02:15:52.885Z,22.73
2022-10-19T02:17:02.369Z,25.10
2022-10-19T02:18:06.966Z,24.85
2022-10-19T02:19:11.716Z,27.80
2022-10-19T02:20:15.591Z,28.67
2022-10-19T02:21:18.668Z,28.17
2022-10-19T02:22:21.455Z,27.98
2022-10-19T02:23:26.548Z,24.88
2022-10-19T02:24:28.756Z,20.35
2022-10-19T02:25:31.564Z,23.73
2022-10-19T02:26:34.220Z,20.73
2022-10-19T02:27:39.682Z,25.05
2022-10-19T02:28:41.870Z,22.55
2022-10-19T02:29:44.042Z,20.45
2022-10-19T02:30:46.296Z,24.23
2022-10-19T02:31:48.977Z,24.58
2022-10-19T02:32:51.534Z,27.63
2022-10-19T02:33:54.364Z,23.63
2022-10-19T02:34:57.071Z,23.95
2022-10-19T02:36:00.030Z,23.10
2022-10-19T02:37:02.255Z,24.58
2022-10-19T02:38:07.325Z,23.90
2022-10-19T02:39:09.892Z,20.27
2022-10-19T02:40:12.504Z,28.67
2022-10-19T02:41:20.639Z,23.30
2022-10-19T02:42:32.990Z,27.35
2022-10-19T02:43:39.303Z,29.27
2022-10-19T02:45:00.094Z,28.98
2022-10-19T02:46:20.375Z,36.30
2022-10-19T02:47:27.708Z,32.15
2022-10-19T02:48:33.198Z,29.92
2022-10-19T02:49:37.567Z,21.20
2022-10-19T02:50:44.227Z,20.63
2022-10-19T02:52:07.122Z,29.98
2022-10-19T02:53:09.313Z,36.75
2022-10-19T02:54:11.459Z,36.75
2022-10-19T02:55:13.705Z,37.72
2022-10-19T02:56:15.867Z,27.00
2022-10-19T02:57:20.901Z,36.33
2022-10-19T02:58:23.134Z,44.38
2022-10-19T02:59:25.547Z,34.67
2022-10-19T03:00:27.676Z,39.88
2022-10-19T03:01:30.058Z,20.85
2022-10-19T03:02:32.253Z,21.77
2022-10-19T03:03:34.419Z,32.20
2022-10-19T03:04:36.752Z,28.83
2022-10-19T03:05:39.351Z,20.00
2022-10-19T03:06:41.870Z,33.30
2022-10-19T03:07:44.038Z,23.42
2022-10-19T03:08:46.362Z,30.88
2022-10-19T03:09:49.204Z,32.35
2022-10-19T03:10:51.358Z,28.77
2022-10-19T03:11:55.397Z,27.38
2022-10-19T03:12:58.246Z,25.90
2022-10-19T03:14:00.437Z,28.95
2022-10-19T03:15:02.651Z,27.92
2022-10-19T03:16:10.216Z,29.65
2022-10-19T03:17:12.456Z,23.20
2022-10-19T03:18:17.233Z,22.92
2022-10-19T03:19:19.441Z,19.88
2022-10-19T03:20:21.600Z,24.08
2022-10-19T03:21:23.834Z,20.75
2022-10-19T03:22:26.018Z,20.23
2022-10-19T03:23:29.192Z,20.10
2022-10-19T03:24:32.138Z,18.45
2022-10-19T03:25:34.350Z,21.85
2022-10-19T03:26:37.325Z,16.27
2022-10-19T03:27:39.510Z,16.95
2022-10-19T03:28:42.200Z,19.58
2022-10-19T03:29:44.854Z,20.70
2022-10-19T03:30:47.260Z,16.52
2022-10-19T03:31:49.525Z,21.10
2022-10-19T03:32:51.724Z,20.95
2022-10-19T03:33:53.935Z,18.33
2022-10-19T03:34:56.139Z,18.42
2022-10-19T03:36:25.397Z,18.08
2022-10-19T03:37:27.517Z,21.05
2022-10-19T03:38:29.700Z,20.58
2022-10-19T03:39:31.844Z,21.23
2022-10-19T03:40:34.067Z,19.95
2022-10-19T03:41:37.179Z,19.50
2022-10-19T03:42:39.323Z,22.23
2022-10-19T03:43:41.497Z,17.80
2022-10-19T03:44:43.678Z,20.80
2022-10-19T03:45:46.401Z,19.85
2022-10-19T03:46:48.546Z,24.15
2022-10-19T03:47:51.747Z,18.38
2022-10-19T03:48:54.138Z,21.20
2022-10-19T03:49:56.331Z,25.35
2022-10-19T03:51:06.383Z,33.35
2022-10-19T03:52:10.011Z,27.38
2022-10-19T03:53:12.270Z,31.40
2022-10-19T03:54:16.655Z,21.38
2022-10-19T03:55:18.833Z,17.10
2022-10-19T03:56:23.790Z,16.98
2022-10-19T03:57:26.001Z,18.20
2022-10-19T03:58:28.186Z,16.60
2022-10-19T03:59:30.450Z,14.15
2022-10-19T04:00:32.608Z,14.80
2022-10-19T04:01:37.892Z,15.50
2022-10-19T04:02:40.096Z,20.25
2022-10-19T04:03:42.355Z,16.15
2022-10-19T04:04:44.545Z,16.33
2022-10-19T04:05:46.766Z,15.63
2022-10-19T04:06:50.196Z,14.85
2022-10-19T04:07:52.390Z,13.73
2022-10-19T04:08:54.817Z,13.77
2022-10-19T04:09:57.087Z,17.17
2022-10-19T04:11:10.835Z,20.00
2022-10-19T04:12:13.011Z,22.55
2022-10-19T04:13:15.875Z,19.27
2022-10-19T04:14:31.805Z,21.73
2022-10-19T04:15:35.099Z,21.13
2022-10-19T04:16:37.291Z,18.40
2022-10-19T04:17:39.483Z,22.52
2022-10-19T04:18:41.696Z,30.65
2022-10-19T04:19:43.855Z,32.10
2022-10-19T04:20:46.055Z,36.25
2022-10-19T04:21:49.105Z,47.80
2022-10-19T04:22:54.295Z,50.70
2022-10-19T04:24:14.270Z,47.78
2022-10-19T04:25:16.603Z,44.35
2022-10-19T04:26:18.989Z,47.72
2022-10-19T04:27:21.136Z,38.45
2022-10-19T04:28:23.354Z,34.78
2022-10-19T04:29:29.668Z,36.80
2022-10-19T04:30:32.199Z,46.40
2022-10-19T04:31:34.690Z,33.45
2022-10-19T04:32:36.874Z,26.02
2022-10-19T04:33:40.074Z,29.38
2022-10-19T04:34:42.366Z,31.08
2022-10-19T04:35:44.561Z,29.92
2022-10-19T04:36:46.698Z,39.17
2022-10-19T04:37:48.887Z,41.55
2022-10-19T04:38:51.578Z,34.92
2022-10-19T04:39:53.767Z,30.17
2022-10-19T04:40:56.257Z,35.03
2022-10-19T04:41:58.468Z,43.28
2022-10-19T04:43:00.601Z,37.22
2022-10-19T04:44:06.505Z,29.27
2022-10-19T04:45:09.086Z,27.73
2022-10-19T04:46:14.119Z,32.92
2022-10-19T04:47:16.295Z,33.88
2022-10-19T04:48:18.539Z,30.40
2022-10-19T04:49:20.789Z,26.02
2022-10-19T04:50:24.303Z,30.75
2022-10-19T04:51:31.343Z,28.30
2022-10-19T04:52:35.128Z,30.77
2022-10-19T04:53:40.593Z,29.88
2022-10-19T04:54:42.778Z,32.42
2022-10-19T04:55:44.957Z,30.60
2022-10-19T04:56:47.110Z,31.52
2022-10-19T04:57:49.300Z,28.33
2022-10-19T04:58:54.853Z,26.15
2022-10-19T04:59:57.018Z,26.33
2022-10-19T05:00:59.203Z,26.77
2022-10-19T05:02:01.404Z,31.00
2022-10-19T05:03:03.577Z,27.38
2022-10-19T05:04:05.751Z,25.50
2022-10-19T05:05:08.979Z,25.70
2022-10-19T05:06:12.594Z,26.88
2022-10-19T05:07:14.781Z,26.77
2022-10-19T05:08:17.075Z,29.13
2022-10-19T05:09:19.263Z,29.73
2022-10-19T05:10:21.577Z,30.85
2022-10-19T05:11:24.115Z,28.60
2022-10-19T05:12:26.314Z,24.92
2022-10-19T05:13:28.505Z,33.88
2022-10-19T05:14:35.002Z,23.42
2022-10-19T05:15:38.947Z,29.30
2022-10-19T05:16:41.283Z,26.25
2022-10-19T05:17:43.443Z,26.55
2022-10-19T05:18:50.046Z,24.60
2022-10-19T05:19:52.228Z,24.65
2022-10-19T05:21:21.721Z,25.20
2022-10-19T05:22:24.697Z,23.13
2022-10-19T05:23:27.066Z,25.35
2022-10-19T05:24:29.281Z,25.67
2022-10-19T05:25:31.429Z,22.10
2022-10-19T05:26:33.675Z,24.23
2022-10-19T05:27:36.164Z,27.70
2022-10-19T05:28:39.485Z,24.95
2022-10-19T05:29:41.675Z,23.27
2022-10-19T05:30:48.843Z,26.20
2022-10-19T05:31:51.379Z,24.33
2022-10-19T05:32:53.571Z,23.98
2022-10-19T05:33:56.261Z,25.70
2022-10-19T05:34:58.694Z,26.73
2022-10-19T05:36:16.920Z,24.20
2022-10-19T05:37:19.215Z,24.50
2022-10-19T05:38:21.625Z,25.10
2022-10-19T05:39:23.823Z,26.83
2022-10-19T05:40:25.986Z,22.77
2022-10-19T05:41:28.474Z,23.92
2022-10-19T05:42:30.702Z,23.63
2022-10-19T05:43:33.043Z,24.30
2022-10-19T05:44:35.897Z,25.23
2022-10-19T05:45:38.126Z,22.98
2022-10-19T05:46:40.539Z,23.77
2022-10-19T05:47:42.699Z,24.45
2022-10-19T05:48:46.262Z,22.40
2022-10-19T05:49:48.441Z,24.40
2022-10-19T05:50:54.857Z,25.45
2022-10-19T05:51:57.070Z,27.42
2022-10-19T05:52:59.286Z,25.90
2022-10-19T05:54:01.516Z,25.30
2022-10-19T05:55:03.875Z,23.83
2022-10-19T05:56:07.928Z,28.13
2022-10-19T05:57:10.172Z,27.10
2022-10-19T05:58:12.349Z,24.90
2022-10-19T05:59:17.654Z,27.35
2022-10-19T06:00:19.801Z,25.23
2022-10-19T06:01:22.008Z,30.65
2022-10-19T06:02:24.607Z,28.88
2022-10-19T06:03:27.772Z,25.42
2022-10-19T06:04:30.143Z,28.42
2022-10-19T06:05:32.307Z,26.58
2022-10-19T06:06:34.581Z,25.80
2022-10-19T06:07:37.116Z,25.73
2022-10-19T06:08:39.594Z,27.48
2022-10-19T06:09:41.780Z,29.77
2022-10-19T06:10:45.129Z,27.55
2022-10-19T06:11:47.866Z,29.40
2022-10-19T06:12:50.010Z,27.27
2022-10-19T06:13:55.324Z,26.05
2022-10-19T06:14:57.438Z,24.80
2022-10-19T06:15:59.589Z,27.95
2022-10-19T06:17:01.743Z,25.83
2022-10-19T06:18:04.635Z,26.50
2022-10-19T06:19:06.832Z,23.90
2022-10-19T06:20:09.532Z,22.23
2022-10-19T06:21:15.571Z,25.83
2022-10-19T06:22:18.846Z,24.33
2022-10-19T06:23:21.000Z,21.83
2022-10-19T06:24:23.398Z,22.15
2022-10-19T06:25:25.621Z,22.60
2022-10-19T06:26:28.666Z,21.08
2022-10-19T06:27:32.410Z,22.52
2022-10-19T06:28:36.485Z,23.13
2022-10-19T06:29:38.627Z,21.52
2022-10-19T06:30:41.460Z,18.40
2022-10-19T06:31:47.662Z,20.55
2022-10-19T06:32:49.954Z,18.42
2022-10-19T06:33:52.238Z,20.20
2022-10-19T06:34:56.679Z,18.55
2022-10-19T06:36:06.993Z,18.95
2022-10-19T06:37:09.154Z,18.58
2022-10-19T06:38:13.681Z,18.15
2022-10-19T06:39:15.969Z,18.42
2022-10-19T06:40:18.227Z,16.77
2022-10-19T06:41:20.888Z,17.60
2022-10-19T06:42:23.012Z,16.55
2022-10-19T06:43:25.426Z,18.60
2022-10-19T06:44:27.594Z,17.88
2022-10-19T06:45:34.825Z,19.65
2022-10-19T06:46:38.385Z,18.63
2022-10-19T06:47:40.720Z,18.00
2022-10-19T06:48:43.192Z,18.20
2022-10-19T06:49:45.395Z,19.35
2022-10-19T06:50:55.963Z,18.73
2022-10-19T06:51:58.139Z,17.73
2022-10-19T06:53:00.320Z,18.58
2022-10-19T06:54:02.776Z,18.02
2022-10-19T06:55:05.440Z,18.65
2022-10-19T06:56:08.080Z,18.88
2022-10-19T06:57:10.435Z,18.25
2022-10-19T06:58:12.953Z,18.38
2022-10-19T06:59:15.344Z,18.38
2022-10-19T07:00:17.608Z,18.50
2022-10-19T07:01:20.100Z,16.38
2022-10-19T07:02:22.748Z,16.08
2022-10-19T07:03:25.743Z,15.40
2022-10-19T07:04:27.987Z,16.10
2022-10-19T07:05:30.295Z,18.38
2022-10-19T07:06:32.480Z,17.63
2022-10-19T07:07:35.204Z,15.60
2022-10-19T07:08:38.825Z,14.88
2022-10-19T07:09:41.052Z,17.63
2022-10-19T07:10:43.256Z,17.10
2022-10-19T07:11:46.320Z,18.08
2022-10-19T07:12:48.596Z,17.65
2022-10-19T07:13:52.477Z,18.63
2022-10-19T07:14:55.530Z,18.23
2022-10-19T07:15:59.696Z,23.23
2022-10-19T07:17:01.945Z,18.92
2022-10-19T07:18:04.200Z,18.20
2022-10-19T07:19:06.389Z,18.58
2022-10-19T07:20:10.614Z,17.83
2022-10-19T07:21:15.375Z,19.70
2022-10-19T07:22:23.143Z,18.27
2022-10-19T07:23:29.404Z,19.13
2022-10-19T07:24:31.592Z,18.80
2022-10-19T07:25:33.967Z,18.80
2022-10-19T07:26:36.427Z,17.25
2022-10-19T07:27:40.347Z,18.23
2022-10-19T07:28:44.902Z,16.48
2022-10-19T07:29:47.052Z,17.05
2022-10-19T07:30:49.289Z,17.33
2022-10-19T07:31:51.478Z,17.08
2022-10-19T07:32:53.671Z,17.60
2022-10-19T07:33:58.130Z,17.20
2022-10-19T07:35:00.426Z,17.27
2022-10-19T07:36:05.792Z,17.67
2022-10-19T07:37:07.933Z,17.85
2022-10-19T07:38:10.276Z,18.58
2022-10-19T07:39:13.083Z,19.25
2022-10-19T07:40:15.312Z,18.20
2022-10-19T07:41:19.735Z,17.95
2022-10-19T07:43:29.304Z,17.17
2022-10-19T07:44:31.422Z,17.75
2022-10-19T07:45:33.643Z,18.67
2022-10-19T07:46:37.077Z,19.35
2022-10-19T07:47:39.293Z,17.95
2022-10-19T07:48:42.073Z,16.90
2022-10-19T07:49:44.485Z,17.80
2022-10-19T07:50:49.438Z,16.30
2022-10-19T07:51:54.066Z,16.73
2022-10-19T07:52:56.464Z,16.85
2022-10-19T07:53:59.276Z,16.73
2022-10-19T07:55:01.546Z,16.75
2022-10-19T07:56:07.999Z,16.92
2022-10-19T07:57:12.330Z,16.63
2022-10-19T07:58:14.485Z,15.57
2022-10-19T07:59:17.258Z,14.88
2022-10-19T08:00:19.570Z,16.83
2022-10-19T08:01:24.452Z,15.60
2022-10-19T08:02:30.957Z,15.38
2022-10-19T08:04:31.779Z,15.60
2022-10-19T08:05:07.616Z,14.88
2022-10-19T08:06:16.480Z,14.18
2022-10-19T08:07:18.622Z,14.48
2022-10-19T08:08:20.766Z,13.35
2022-10-19T08:09:47.763Z,13.90
2022-10-19T08:10:45.199Z,12.50
2022-10-19T08:11:47.415Z,13.07
2022-10-19T08:12:49.600Z,12.52
2022-10-19T08:13:52.505Z,13.43
2022-10-19T08:14:54.641Z,14.05
2022-10-19T08:15:56.777Z,13.93
2022-10-19T08:16:59.014Z,18.40
2022-10-19T08:18:01.373Z,17.33
2022-10-19T08:19:07.077Z,17.65
2022-10-19T08:20:09.631Z,19.63
2022-10-19T08:21:11.777Z,17.17
2022-10-19T08:22:14.106Z,16.40
2022-10-19T08:23:16.387Z,17.70
2022-10-19T08:24:20.243Z,18.02
2022-10-19T08:25:22.520Z,17.67
2022-10-19T08:26:25.549Z,18.25
2022-10-19T08:27:29.029Z,17.15
2022-10-19T08:28:31.235Z,17.65
2022-10-19T08:29:33.361Z,17.45
2022-10-19T08:30:36.832Z,17.42
2022-10-19T08:31:39.895Z,16.90
2022-10-19T08:32:42.950Z,16.25
2022-10-19T08:33:45.606Z,16.65
2022-10-19T08:34:47.742Z,18.10
2022-10-19T08:35:49.936Z,17.50
2022-10-19T08:36:52.886Z,18.00
2022-10-19T08:37:57.270Z,16.80
2022-10-19T08:39:02.097Z,15.20
2022-10-19T08:40:05.068Z,15.98
2022-10-19T08:41:23.033Z,16.67
2022-10-19T08:42:47.733Z,16.10
2022-10-19T08:44:16.449Z,16.75
2022-10-19T08:45:30.526Z,16.98
2022-10-19T08:46:54.262Z,16.88
2022-10-19T08:48:04.491Z,16.75
2022-10-19T08:49:10.037Z,16.80
2022-10-19T08:50:42.422Z,16.00
2022-10-19T08:51:49.541Z,17.13
2022-10-19T08:53:03.883Z,16.65
2022-10-19T08:54:12.335Z,18.05
2022-10-19T08:55:21.577Z,16.70
2022-10-19T08:56:49.849Z,16.25
2022-10-19T08:58:02.895Z,15.77
2022-10-19T08:59:32.230Z,16.17
2022-10-19T09:01:11.233Z,16.63
2022-10-19T09:02:32.653Z,16.42
2022-10-19T09:03:56.146Z,14.75
2022-10-19T09:05:05.561Z,15.55
2022-10-19T09:06:25.729Z,15.20
2022-10-19T09:07:34.057Z,15.60
2022-10-19T09:08:38.662Z,15.90
2022-10-19T09:09:53.956Z,15.85
2022-10-19T09:10:57.265Z,15.38
2022-10-19T09:12:05.778Z,15.25
2022-10-19T09:13:36.411Z,15.13
2022-10-19T09:14:58.059Z,14.38
2022-10-19T09:16:00.951Z,15.15
2022-10-19T09:17:10.623Z,13.95
2022-10-19T09:18:22.221Z,14.80
2022-10-19T09:19:29.945Z,15.57
2022-10-19T09:20:38.115Z,15.32
2022-10-19T09:22:01.811Z,14.57
2022-10-19T09:23:19.850Z,13.88
2022-10-19T09:24:48.853Z,13.60
2022-10-19T09:25:51.742Z,11.98
2022-10-19T09:26:57.341Z,12.68
2022-10-19T09:28:14.892Z,13.98
2022-10-19T09:29:22.957Z,13.52
2022-10-19T09:30:25.193Z,12.63
2022-10-19T09:31:38.202Z,13.43
2022-10-19T09:32:42.828Z,13.75
2022-10-19T09:33:52.081Z,14.10
2022-10-19T09:34:58.736Z,13.63
2022-10-19T09:36:03.332Z,13.68
2022-10-19T09:37:05.795Z,13.95
2022-10-19T09:38:10.531Z,15.38
2022-10-19T09:39:13.833Z,14.73
2022-10-19T09:40:22.578Z,14.60
2022-10-19T09:41:25.168Z,16.30
2022-10-19T09:42:36.810Z,16.30
2022-10-19T09:43:39.358Z,16.15
2022-10-19T09:44:41.627Z,16.25
2022-10-19T09:45:46.427Z,17.58
2022-10-19T09:46:53.498Z,17.60
2022-10-19T09:47:58.274Z,17.42
2022-10-19T09:49:04.646Z,17.08
2022-10-19T09:50:09.627Z,17.02
2022-10-19T09:51:14.736Z,17.38
2022-10-19T09:52:24.305Z,18.30
2022-10-19T09:53:28.018Z,17.98
2022-10-19T09:54:38.687Z,17.48
2022-10-19T09:56:55.990Z,17.33
2022-10-19T09:58:04.479Z,17.17
2022-10-19T09:59:22.181Z,17.80
2022-10-19T10:00:37.198Z,16.63
2022-10-19T10:01:43.539Z,17.13
2022-10-19T10:02:55.317Z,16.83
2022-10-19T10:04:08.119Z,16.38
2022-10-19T10:05:15.166Z,17.23
2022-10-19T10:06:17.875Z,16.10
2022-10-19T10:07:20.159Z,15.88
2022-10-19T10:08:29.582Z,15.65
2022-10-19T10:09:38.049Z,15.82
2022-10-19T10:10:45.705Z,14.82
2022-10-19T10:11:50.759Z,14.80
2022-10-19T10:12:53.294Z,15.15
2022-10-19T10:13:57.587Z,15.40
2022-10-19T10:14:59.840Z,14.60
2022-10-19T10:16:06.079Z,14.02
2022-10-19T10:17:20.877Z,14.43
2022-10-19T10:18:25.075Z,13.55
2022-10-19T10:19:29.322Z,14.07
2022-10-19T10:20:32.489Z,13.50
2022-10-19T10:21:45.535Z,13.02
2022-10-19T10:22:57.915Z,13.25
2022-10-19T10:24:17.585Z,13.63
2022-10-19T10:25:21.483Z,13.15
2022-10-19T10:26:25.991Z,13.57
2022-10-19T10:27:34.742Z,13.02
2022-10-19T10:28:47.453Z,13.65
2022-10-19T10:31:06.237Z,13.52
2022-10-19T10:32:16.221Z,14.13
2022-10-19T10:33:40.426Z,14.05
2022-10-19T10:35:00.757Z,13.70
2022-10-19T10:36:08.315Z,13.18
2022-10-19T10:37:36.124Z,13.18
2022-10-19T10:38:51.987Z,12.30
2022-10-19T10:39:59.172Z,12.93
2022-10-19T10:41:15.562Z,11.98
2022-10-19T10:42:22.140Z,11.43
2022-10-19T10:43:32.445Z,11.57
2022-10-19T10:44:36.674Z,11.18
2022-10-19T10:45:46.198Z,10.73
2022-10-19T10:46:58.288Z,11.02
2022-10-19T10:48:27.071Z,9.77
2022-10-19T10:49:34.986Z,10.95
2022-10-19T10:50:37.524Z,10.80
2022-10-19T10:51:49.213Z,9.55
2022-10-19T10:53:00.762Z,9.98
2022-10-19T10:54:19.543Z,9.82
2022-10-19T10:55:21.757Z,8.82
2022-10-19T10:56:33.549Z,7.28
2022-10-19T10:57:43.375Z,6.35
2022-10-19T10:58:55.868Z,5.70
2022-10-19T11:01:20.519Z,5.40
2022-10-19T11:02:36.604Z,6.38
2022-10-19T11:03:46.314Z,9.05
2022-10-19T11:05:00.485Z,9.05
2022-10-19T11:06:02.784Z,8.75
2022-10-19T11:07:18.220Z,8.75
2022-10-19T11:08:41.500Z,8.40
2022-10-19T11:09:50.742Z,8.02
2022-10-19T11:11:15.648Z,8.30
2022-10-19T11:12:23.954Z,7.93
2022-10-19T11:13:48.938Z,7.32
2022-10-19T11:15:00.680Z,8.00
2022-10-19T11:16:12.503Z,7.60
2022-10-19T11:17:21.173Z,7.32
2022-10-19T11:18:32.173Z,7.63
2022-10-19T11:19:39.402Z,7.57
2022-10-19T11:20:53.189Z,7.07
2022-10-19T11:22:13.357Z,7.18
2022-10-19T11:23:35.619Z,7.45
2022-10-19T11:25:01.850Z,8.18
2022-10-19T11:26:15.422Z,7.35
2022-10-19T11:27:23.278Z,6.70
2022-10-19T11:28:25.360Z,7.63
2022-10-19T11:29:55.598Z,7.55
2022-10-19T11:31:19.222Z,6.88
2022-10-19T11:32:40.030Z,6.53
2022-10-19T11:33:49.223Z,6.28
2022-10-19T11:35:33.069Z,6.18
2022-10-19T11:36:59.213Z,6.03
2022-10-19T11:38:33.493Z,5.72
2022-10-19T11:39:43.045Z,5.68
2022-10-19T11:41:16.772Z,4.97
2022-10-19T11:43:04.873Z,5.32
2022-10-19T11:44:12.787Z,5.30
2022-10-19T11:45:41.626Z,5.03
2022-10-19T11:46:54.368Z,5.65
2022-10-19T11:48:28.457Z,5.30
2022-10-19T11:49:59.505Z,4.78
2022-10-19T11:51:23.115Z,4.65
2022-10-19T11:52:49.400Z,5.13
2022-10-19T11:54:14.542Z,4.47
2022-10-19T11:55:27.542Z,4.60
2022-10-19T11:57:02.469Z,3.80
2022-10-19T11:58:34.475Z,4.50
2022-10-19T11:59:49.300Z,3.70
2022-10-19T12:01:15.928Z,3.55
2022-10-19T12:02:50.809Z,4.10
2022-10-19T12:04:21.655Z,3.50
2022-10-19T12:05:40.911Z,3.67
2022-10-19T12:07:17.564Z,3.80
2022-10-19T12:08:41.766Z,3.70
2022-10-19T12:09:50.519Z,3.45
2022-10-19T12:11:11.344Z,3.65
2022-10-19T12:12:33.909Z,3.30
2022-10-19T12:13:44.642Z,3.67
2022-10-19T12:14:52.612Z,3.42
2022-10-19T12:15:57.907Z,3.47
2022-10-19T12:17:07.886Z,3.20
2022-10-19T12:18:27.947Z,3.20
2022-10-19T12:19:36.915Z,2.97
2022-10-19T12:20:45.799Z,2.42
2022-10-19T12:21:48.666Z,2.80
2022-10-19T12:22:51.150Z,2.50
2022-10-19T12:23:55.139Z,2.47
2022-10-19T12:25:01.883Z,3.08
2022-10-19T12:26:08.448Z,2.33
2022-10-19T12:27:16.324Z,2.38
2022-10-19T12:28:35.300Z,1.73
2022-10-19T12:29:41.175Z,1.90
2022-10-19T12:30:43.518Z,1.85
2022-10-19T12:31:50.200Z,2.58
2022-10-19T12:33:14.431Z,1.98
2022-10-19T12:34:27.566Z,1.65
2022-10-19T12:35:47.168Z,1.77
2022-10-19T12:36:58.870Z,1.70
2022-10-19T12:38:19.617Z,1.77
2022-10-19T12:39:46.233Z,1.80
2022-10-19T12:41:10.571Z,1.50
2022-10-19T12:42:53.046Z,1.85
2022-10-19T12:44:26.230Z,1.80
2022-10-19T12:45:35.772Z,1.63
2022-10-19T12:46:51.736Z,1.63
2022-10-19T12:48:07.819Z,1.75
2022-10-19T12:49:36.523Z,2.20
2022-10-19T12:50:51.015Z,1.85
2022-10-19T12:51:55.023Z,1.92
2022-10-19T12:52:57.209Z,1.83
2022-10-19T12:54:09.530Z,2.20
2022-10-19T12:55:17.495Z,2.30
2022-10-19T12:56:24.076Z,2.47
2022-10-19T12:57:29.551Z,2.38
2022-10-19T12:58:47.458Z,3.00
2022-10-19T13:00:00.571Z,2.50
2022-10-19T13:01:05.468Z,2.17
2022-10-19T13:02:26.571Z,2.40
2022-10-19T13:03:38.114Z,2.20
2022-10-19T13:04:53.295Z,2.40
2022-10-19T13:05:58.255Z,2.10
2022-10-19T13:07:05.003Z,2.00
2022-10-19T13:08:10.739Z,2.20
2022-10-19T13:09:43.687Z,2.17
2022-10-19T13:11:03.652Z,2.35
2022-10-19T13:12:27.110Z,1.90
2022-10-19T13:13:56.892Z,2.15
2022-10-19T13:15:01.161Z,2.90
2022-10-19T13:16:28.997Z,3.25
2022-10-19T13:17:34.301Z,3.60
2022-10-19T13:19:13.319Z,3.63
2022-10-19T13:20:15.631Z,3.33
2022-10-19T13:21:44.049Z,3.90
2022-10-19T13:22:48.890Z,3.63
2022-10-19T13:23:51.092Z,3.65
2022-10-19T13:25:21.421Z,3.42
2022-10-19T13:26:32.801Z,3.47
2022-10-19T13:27:37.389Z,3.78
2022-10-19T13:28:52.914Z,3.08
2022-10-19T13:29:55.849Z,3.22
2022-10-19T13:31:04.957Z,3.13
2022-10-19T13:32:43.183Z,2.88
2022-10-19T13:33:47.083Z,2.80
2022-10-19T13:34:49.622Z,2.92
2022-10-19T13:36:00.615Z,3.13
2022-10-19T13:37:04.153Z,3.50
2022-10-19T13:38:08.997Z,3.33
2022-10-19T13:39:13.849Z,3.70
2022-10-19T13:40:24.488Z,3.55
2022-10-19T13:41:44.473Z,2.95
2022-10-19T13:42:46.720Z,3.40
2022-10-19T13:43:55.214Z,3.70
2022-10-19T13:44:57.618Z,4.38
2022-10-19T13:46:19.796Z,3.85
2022-10-19T13:47:34.657Z,3.77
2022-10-19T13:48:42.858Z,4.20
2022-10-19T13:50:12.645Z,4.40
2022-10-19T13:51:31.778Z,3.60
2022-10-19T13:53:02.983Z,4.18
2022-10-19T13:54:37.240Z,3.90
2022-10-19T13:56:09.406Z,3.78
2022-10-19T13:57:33.665Z,3.90
2022-10-19T13:59:10.392Z,3.30
2022-10-19T14:00:19.662Z,3.47
2022-10-19T14:01:55.995Z,3.75
2022-10-19T14:02:58.183Z,3.53
2022-10-19T14:04:21.793Z,3.88
2022-10-19T14:05:42.947Z,3.72
2022-10-19T14:06:53.217Z,3.45
2022-10-19T14:08:01.507Z,3.50
2022-10-19T14:09:22.592Z,3.50
2022-10-19T14:10:32.888Z,3.60
2022-10-19T14:11:39.742Z,3.35
2022-10-19T14:12:43.666Z,3.22
2022-10-19T14:13:46.844Z,3.75
2022-10-19T14:14:51.893Z,3.90
2022-10-19T14:15:56.760Z,3.88
2022-10-19T14:17:04.213Z,3.60
2022-10-19T14:18:28.765Z,3.88
2022-10-19T14:19:52.255Z,3.72
2022-10-19T14:21:10.148Z,3.63
2022-10-19T14:22:25.996Z,3.83
2022-10-19T14:23:31.778Z,3.30
2022-10-19T14:24:35.656Z,3.67
2022-10-19T14:25:37.961Z,4.10
2022-10-19T14:26:40.699Z,3.60
2022-10-19T14:27:43.413Z,4.00
2022-10-19T14:28:50.968Z,3.63
2022-10-19T14:29:54.189Z,3.88
2022-10-19T14:31:01.357Z,3.75
2022-10-19T14:32:04.344Z,3.28
2022-10-19T14:33:09.526Z,3.35
2022-10-19T14:34:14.231Z,3.75
2022-10-19T14:35:29.101Z,3.80
2022-10-19T14:36:36.774Z,4.00
2022-10-19T14:37:43.855Z,3.25
2022-10-19T14:38:48.186Z,4.00
2022-10-19T14:40:00.935Z,3.67
2022-10-19T14:41:05.547Z,3.15
2022-10-19T14:42:10.353Z,3.90
2022-10-19T14:43:24.901Z,3.80
2022-10-19T14:44:38.431Z,3.50
2022-10-19T14:45:40.680Z,3.47
2022-10-19T14:46:47.778Z,3.45
2022-10-19T14:48:01.383Z,3.40
2022-10-19T14:49:05.768Z,4.13
2022-10-19T14:50:11.366Z,3.72
2022-10-19T14:51:58.978Z,3.58